Cuba, MO (65453)

7:04 PM CDT on May 27, 2015 (GMT -0500)
Cuba | | Change Station
CLOSE
Current Station
Personal Weather Station
Location: Cuba, MO
Elevation: 1040 ft
Nearby Weather Stations

Elev 1040 ft 38.06 °N, 91.40 °W | Updated 12 minutes ago

Clear
Clear
80.1 °F
Feels Like 81 °F
N
3.7
Wind Variable Wind from NNE

Today
High -- | Low -- °F
--% Chance of Precip.
Yesterday
High -- | Low -- °F
Precip. -- in
5:46 AM 8:19 PM
Waxing Gibbous, 71% visible
Pressure 30.04 in
Visibility 10.0 miles
Clouds Clear
Heat Index 81 °F
Dew Point 60 °F
Humidity 50%
Rainfall 0.24 in
Snow Depth Not available.
UV 1 out of 12
Pollen 8.20 out of 12
Air Quality Not available.
Flu Activity Sporadic
METAR KVIH 272353Z AUTO 34005KT 10SM CLR 26/14 A3007 RMK AO2 SLP173 T02560144 10267 20244 58005

More Conditions Fewer Conditions

Pressure 30.04 in
Visibility 10.0 miles
Clouds Clear
Heat Index 81 °F
Dew Point 60 °F
Humidity 50%
Rainfall 0.24 in
Snow Depth Not available.
UV 1 out of 12
Pollen 8.20 out of 12
Air Quality Not available.
Flu Activity Sporadic
METAR KVIH 272353Z AUTO 34005KT 10SM CLR 26/14 A3007 RMK AO2 SLP173 T02560144 10267 20244 58005

More Conditions Fewer Conditions

10-Day Weather Forecast

Almanac

Astronomy

May. 27, 2015 Rise Set
Actual Time
Civil Twilight
Nautical Twilight
Astronomical Twilight
Moon
Length of Visible Light
Length of Day
Tomorrow will be .
, % of the Moon is Illuminated

Today's Extremes

State Highs State Lows

Community

WunderPhotos

Upload Photos

1,824,825 photos uploaded!

WunderBlogs® & News

Nearby

Air Quality

  Air Quality AQ Index Pollutant
Not available.

Snow Depth

Station Depth Elevation

Earthquake Activity

City Distance Mag. Time & Date
Minimum magnitude displayed is 2.5.

Coastal Water Temperatures

Place Temperature

Stations

Nearby Weather Stations

Station Location Temp. Windchill Dew Point Humidity Wind Precip. Elev Updated Type